Airfield :
LOGIN :

Register | Disclaimer

   EN    FR    IT 

 










Legend :    VFR   Marginal VFR   IFR   Intensive IFR   Very Intensive IFR
Visi :
Ceiling :
>= 8 km
>= 3000ft
5 to 8 km
1000 to 3000 ft
1500m to 5 km
500 to 1000 ft
800 to 1500m
200 to 500 ft
< 800m
< 200 ft
Symbols :   Thunderstorms  Fog  Heavy snow  Heavy precipitations  Wind > 20 kt
SIGMETs :     Misc.  Thunderstorms  Icing  Turbulence  Mountain Waves  Volcanic Ashes






- Airport Elevation : 464 ft
- IATA code : EVX


LFOE - Evreux

CURRENT METAR :
  • 110230Z AUTO 23009KT 4700 -RADZ BR BKN007 OVC013 08/07 Q1012 BECMG 9000 NSW SCT020 BKN040

EXPIRED METARs :
  • 110200Z AUTO 22011KT 9000 -DZ OVC010 08/07 Q1012 TEMPO 18015G25KT BECMG SCT020 BKN040
  • 110130Z AUTO 24012KT 210V270 9999 OVC011 09/07 Q1012 TEMPO 18015G25KT BECMG SCT020 BKN040
  • 110100Z AUTO 22014KT 9999 OVC012 09/07 Q1012 TEMPO 4000 RADZ BKN005 BECMG 18015G25KT
  • 110030Z AUTO 21014KT 9999 -DZ OVC012 08/07 Q1012 TEMPO 4000 RADZ BKN005 BECMG 18015G25KT
  • 110000Z AUTO 20015KT 9999 OVC013 08/06 Q1012 TEMPO 4000 RADZ BKN005 BECMG 18015G25KT

TAF TAF LFOE
Valid from the 11 at 03:00 until the 12 at 03:00 UTC


110200Z 1103/1203 22010KT 9000 DZ OVC010
BECMG 1103/1105 NSW SCT020 BKN040
TEMPO 1105/1109 BKN005
BECMG 1109/1112 FEW020
BECMG 1117/1119 4000 SHRA BKN030TCU



MET'MAP, your aeronautical weather chart ! - Copyright ORBIFLY December 2007 - Disclaimer

ORBIFLY MET'MAP TEAM :

Programming & Development : Alexandra Zaïnal
Concept & original design : Baudouin d'Aumeries
Assistance for programming : Marc-Olivier Méhu
Technical & hardware support : Manuel Goepfert

Contact : metmap@orbifly.com




SOURCES & CREDITS :

   NOAA